METAR Data
IDs: Format: Raw Decoded Include TAF

Data at: 0601 UTC 07 Dec 2022

KPDX 070553Z 00000KT 5SM BR OVC048 05/03 A3021 RMK AO2 SLP231 T00500033 10061 20044 51005
KPDX 070453Z 28004KT 7SM OVC050 05/03 A3021 RMK AO2 SLP230 T00500028
KPDX 070353Z 00000KT 7SM OVC050 06/03 A3020 RMK AO2 SLP227 T00560028
KPDX 070253Z 00000KT 8SM FEW012 OVC050 06/03 A3020 RMK AO2 SLP226 T00560028 53005
KPDX 070153Z 00000KT 7SM FEW012 OVC050 06/02 A3019 RMK AO2 SLP224 T00560022
KPDX 070053Z 00000KT 7SM FEW012 OVC049 06/02 A3018 RMK AO2 SLP221 T00560022
KPDX 062353Z 00000KT 7SM BKN045 OVC055 06/02 A3018 RMK AO2 SLP220 60000 T00610022 10061 20039 50000
KPDX 062253Z 00000KT 7SM FEW012 BKN055 06/02 A3018 RMK AO2 SLP221 T00610022
KPDX 062153Z 00000KT 7SM SCT011 OVC055 06/02 A3018 RMK AO2 DZB28E46 SLP221 P0000 T00560017
KPDX 062053Z 00000KT 7SM BKN011 OVC055 06/02 A3018 RMK AO2 SLP220 60000 T00560017 58001
KPDX 061953Z 00000KT 6SM HZ BKN008 OVC055 05/02 A3019 RMK AO2 RAB00E06 SLP224 P0000 T00500017
KPDX 061853Z 00000KT 6SM HZ BKN007 OVC055 04/02 A3020 RMK AO2 SLP225 T00440017
KPDX 061753Z 00000KT 5SM BR OVC007 04/02 A3019 RMK AO2 SLP222 T00390017 10039 20022 53012
KPDX 061653Z 00000KT 5SM BR BKN007 BKN050 03/01 A3017 RMK AO2 SLP215 T00330011
KPDX 061553Z 10003KT 5SM BR BKN007 BKN040 03/01 A3016 RMK AO2 SLP212 T00280006
KPDX 061453Z 14004KT 9SM OVC006 03/01 A3015 RMK AO2 SLP210 T00280006 53009
KPDX 061353Z 11004KT 10SM OVC007 03/01 A3014 RMK AO2 SLP206 T00280006
KPDX 061253Z 11003KT 10SM OVC007 02/00 A3013 RMK AO2 SLP203 T00220000
KPDX 061153Z 11005KT 10SM OVC006 02/00 A3013 RMK AO2 DZE1058 SLP201 P0000 60000 T00220000 10028 20017 50004
KPDX 061053Z 11006KT 10SM -DZ OVC006 02/00 A3014 RMK AO2 SLP204 P0000 T00220000
KPDX 060953Z 11006KT 10SM -DZ BKN008 OVC048 02/M01 A3012 RMK AO2 DZB40 SLP200 P0000 T00221006
KPDX 060915Z 11007KT 10SM BKN009 OVC046 02/M01 A3012 RMK AO2 T00221011
KPDX 060853Z 13004KT 10SM SCT010 BKN046 OVC055 02/M01 A3011 RMK AO2 SLP197 T00221011 51006
KPDX 060753Z 12004KT 10SM FEW031 FEW038 OVC050 02/M01 A3011 RMK AO2 SLP196 T00221011 400671011
KPDX 060653Z 11008KT 10SM FEW030 BKN045 OVC055 02/M01 A3011 RMK AO2 SLP195 T00221011
KPDX 060610Z 11006KT 10SM SCT025 OVC050 02/M01 A3010 RMK AO2 T00221011
KPDX 060553Z 11005KT 10SM BKN025 OVC048 03/M01 A3010 RMK AO2 SLP191 T00281011 10050 20022 53013
KPDX 060510Z 12006KT 10SM BKN023 OVC048 03/M01 A3009 RMK AO2 T00281011
KPDX 060453Z 11006KT 10SM SCT021 OVC045 03/M02 A3008 RMK AO2 SLP187 T00281017
KPDX 060353Z 12008KT 10SM FEW015 BKN041 OVC050 03/M01 A3007 RMK AO2 SLP182 T00281011
KPDX 060253Z 13006KT 10SM FEW015 OVC040 03/M02 A3006 RMK AO2 SLP178 T00281017 51011
KPDX 060153Z 11006KT 10SM FEW015 OVC039 03/M01 A3005 RMK AO2 SLP175 T00281011
KPDX 060053Z 11008KT 10SM FEW015 FEW040 03/M01 A3004 RMK AO2 SLP171 T00331011
KPDX 052353Z 11006KT 10SM FEW015 05/M01 A3003 RMK AO2 SLP167 T00501006 10067 20028 53003
KPDX 052253Z 07004KT 10SM FEW014 06/01 A3001 RMK AO2 SLP163 T00610006
KPDX 052153Z 36003KT 10SM FEW014 06/01 A3001 RMK AO2 SLP162 T00610011
KPDX 052053Z 34003KT 10SM FEW012 05/01 A3002 RMK AO2 SLP165 T00500011 58010
KPDX 051953Z 05003KT 10SM FEW010 05/01 A3003 RMK AO2 SLP167 T00500006
KPDX 051853Z 00000KT 10SM FEW005 FEW080 04/01 A3005 RMK AO2 SLP175 T00390006